01TN weather

Colonial Air Park
Collierville, Tennessee, United States

Public forecast

Using degrees Fahrenheit for public forecast. Weather courtesy of forecast.io.

METAR (pilot weather report)

Closest report is Olive Branch Airport, 3.0 nm (5.5 km) WSW. Retrieved 2019/08/24 05:35 UTC (18 minutes ago):

KOLV 240535Z AUTO 09003KT 22/22 A3001 RMK A01

TAF (pilot weather forecast)

Forecast is more than 12 hours old.

Closest forecast is Memphis International Airport, 12.4 nm (23.0 km) WNW. Retrieved 2019/08/23 00:36 UTC (1 day ago):

TAF KMEM 232333Z 2400/2506 04011KT P6SM VCSH FEW035 SCT250 FM240100 10005KT P6SM VCSH SCT035 BKN080 BKN250 FM240700 VRB03KT P6SM SCT070 BKN250 FM241200 06004KT P6SM SCT009 OVC015 TEMPO 2412/2416 5SM -SHRA BR BKN009 FM241700 04007KT P6SM SCT015 BKN025 OVC040 FM241900 06008KT P6SM VCTS BKN035CB BKN080 BKN250 FM250100 06005KT P6SM SCT070 BKN250